Time;durP1;ratioP1;P1;durP2;ratioP2;P2;SDS_P1;SDS_P2;PMS_P1;PMS_P2;Temp;Humidity;BMP_temperature;BMP_pressure;BME280_temperature;BME280_humidity;BME280_pressure;Samples;Min_cycle;Max_cycle;Signal;HPM_P1;HPM_P2
2022/09/06 00:00:57;;;;;;;2.15;1.80;;;19.60;99.90;;;;;;5030550;28;20018;-73
2022/09/06 00:03:23;;;;;;;3.58;1.83;;;19.60;99.90;;;;;;5030483;28;20036;-73
2022/09/06 00:05:49;;;;;;;3.20;2.00;;;19.50;99.90;;;;;;5030570;28;20064;-73
2022/09/06 00:08:15;;;;;;;2.92;2.15;;;19.40;99.90;;;;;;5030456;28;20037;-73
2022/09/06 00:10:42;;;;;;;2.45;1.90;;;19.40;99.90;;;;;;5030908;28;20079;-73
2022/09/06 00:13:09;;;;;;;3.15;2.00;;;19.30;99.90;;;;;;5030207;28;20029;-72
2022/09/06 00:15:36;;;;;;;3.40;2.05;;;19.30;99.90;;;;;;5030675;28;20029;-73
2022/09/06 00:18:05;;;;;;;6.70;2.30;;;19.20;99.90;;;;;;5030281;28;20109;-74
2022/09/06 00:20:32;;;;;;;5.80;2.28;;;19.20;99.90;;;;;;5039148;28;20036;-74
2022/09/06 00:22:59;;;;;;;3.28;2.30;;;19.10;99.90;;;;;;5035325;28;20100;-73
2022/09/06 00:25:26;;;;;;;3.13;2.30;;;19.20;99.90;;;;;;5030793;28;20033;-73
2022/09/06 00:27:56;;;;;;;4.00;2.50;;;19.20;99.90;;;;;;5030210;28;20441;-74
2022/09/06 00:30:22;;;;;;;5.40;2.50;;;19.20;99.90;;;;;;5030341;28;20171;-73
2022/09/06 00:32:48;;;;;;;4.00;2.22;;;19.30;99.90;;;;;;5030804;28;20072;-73
2022/09/06 00:35:14;;;;;;;3.67;2.50;;;19.30;99.90;;;;;;5030097;28;20040;-73
2022/09/06 00:37:40;;;;;;;3.03;2.50;;;19.30;99.90;;;;;;5030334;28;20108;-73
2022/09/06 00:40:06;;;;;;;5.38;2.40;;;19.30;99.90;;;;;;5028810;28;20072;-74
2022/09/06 00:42:32;;;;;;;4.15;2.25;;;19.40;99.90;;;;;;5030384;28;20107;-74
2022/09/06 00:44:58;;;;;;;3.60;2.50;;;19.40;99.90;;;;;;5030189;28;20459;-73
2022/09/06 00:47:26;;;;;;;3.70;2.10;;;19.40;99.90;;;;;;5049337;28;20084;-73
2022/09/06 00:49:54;;;;;;;3.92;2.25;;;19.40;99.90;;;;;;5035916;28;20435;-74
2022/09/06 00:52:20;;;;;;;3.42;2.03;;;19.50;99.90;;;;;;5050310;28;20025;-73
2022/09/06 00:54:48;;;;;;;3.88;1.70;;;19.50;99.90;;;;;;5035885;28;20024;-73
2022/09/06 00:57:15;;;;;;;4.70;1.83;;;19.50;99.90;;;;;;5041170;28;20038;-73
2022/09/06 00:59:42;;;;;;;2.45;1.60;;;19.50;99.90;;;;;;5031199;28;20018;-73
2022/09/06 01:02:08;;;;;;;3.95;1.77;;;19.50;99.90;;;;;;5042555;28;20025;-74
2022/09/06 01:04:37;;;;;;;3.63;1.55;;;19.50;99.90;;;;;;5045087;28;20025;-74
2022/09/06 01:07:02;;;;;;;1.88;1.63;;;19.50;99.90;;;;;;5053592;28;20067;-73
2022/09/06 01:10:02;;;;;;;2.78;1.50;;;19.50;99.90;;;;;;5053743;28;20457;-73
2022/09/06 01:12:39;;;;;;;2.33;1.63;;;19.50;99.90;;;;;;5030570;28;20086;-74
2022/09/06 01:15:36;;;;;;;2.22;1.70;;;19.60;99.90;;;;;;5039445;28;20025;-74
2022/09/06 01:18:16;;;;;;;2.95;1.73;;;19.60;99.90;;;;;;5053638;28;20032;-73
2022/09/06 01:21:19;;;;;;;2.08;1.77;;;19.60;99.90;;;;;;5053684;28;20025;-73
2022/09/06 01:24:17;;;;;;;1.92;1.80;;;19.60;99.90;;;;;;5050792;28;20029;-73
2022/09/06 01:27:08;;;;;;;4.78;2.00;;;19.60;99.90;;;;;;5046726;28;20024;-73
2022/09/06 01:29:52;;;;;;;3.88;1.75;;;19.60;99.90;;;;;;5030658;28;20033;-74
2022/09/06 01:32:39;;;;;;;2.05;1.70;;;19.60;99.90;;;;;;5053307;28;20048;-73
2022/09/06 01:35:28;;;;;;;1.80;1.70;;;19.60;99.90;;;;;;5053699;28;20021;-73
2022/09/06 01:37:55;;;;;;;2.42;1.80;;;19.50;99.90;;;;;;5027758;28;20477;-74
2022/09/06 01:40:21;;;;;;;3.15;1.90;;;19.60;99.90;;;;;;5053303;28;20024;-73
2022/09/06 01:42:48;;;;;;;2.67;2.08;;;19.60;99.90;;;;;;5053182;28;20025;-73
2022/09/06 01:45:20;;;;;;;4.57;2.13;;;19.50;99.90;;;;;;5042009;28;20045;-73
2022/09/06 01:47:57;;;;;;;4.68;2.10;;;19.50;99.90;;;;;;5047725;28;20066;-74
2022/09/06 01:50:45;;;;;;;3.67;2.53;;;19.50;99.90;;;;;;5044066;28;20045;-73
2022/09/06 01:53:42;;;;;;;4.80;2.65;;;19.50;99.90;;;;;;5052969;28;20021;-73
2022/09/06 01:56:24;;;;;;;4.38;3.20;;;19.40;99.90;;;;;;5052848;28;20082;-74
2022/09/06 01:59:08;;;;;;;5.50;3.35;;;19.40;99.90;;;;;;5053492;28;20434;-73
2022/09/06 02:01:57;;;;;;;4.60;2.90;;;19.40;99.90;;;;;;5039833;28;20029;-73
2022/09/06 02:04:45;;;;;;;5.47;3.00;;;19.30;99.90;;;;;;5056106;28;20033;-74
2022/09/06 02:07:25;;;;;;;4.50;3.15;;;19.30;99.90;;;;;;5053285;28;20021;-73
2022/09/06 02:09:56;;;;;;;5.85;3.08;;;19.20;99.90;;;;;;5038748;28;20104;-73
2022/09/06 02:12:25;;;;;;;4.63;3.40;;;19.10;99.90;;;;;;5052918;28;20099;-73
2022/09/06 02:15:22;;;;;;;7.18;4.05;;;19.10;99.90;;;;;;5052353;28;20021;-74
2022/09/06 02:17:56;;;;;;;5.15;4.05;;;19.10;99.90;;;;;;5051975;28;20040;-73
2022/09/06 02:20:28;;;;;;;5.47;4.00;;;19.00;99.90;;;;;;5038769;28;20016;-73
2022/09/06 02:22:56;;;;;;;5.78;3.95;;;19.00;99.90;;;;;;5052654;28;20040;-74
2022/09/06 02:25:38;;;;;;;7.88;4.28;;;18.90;99.90;;;;;;5052370;28;20017;-73
2022/09/06 02:28:06;;;;;;;7.68;4.38;;;18.90;99.90;;;;;;5038984;28;20501;-73
2022/09/06 02:30:37;;;;;;;6.40;3.80;;;18.80;99.90;;;;;;5051834;28;20424;-73
2022/09/06 02:33:08;;;;;;;6.60;4.15;;;18.80;99.90;;;;;;5052383;28;20029;-74
2022/09/06 02:35:45;;;;;;;7.57;4.78;;;18.80;99.90;;;;;;5052204;28;20060;-73
2022/09/06 02:38:11;;;;;;;5.63;4.22;;;18.70;99.90;;;;;;5052063;28;20025;-73
2022/09/06 02:40:37;;;;;;;7.60;4.90;;;18.70;99.90;;;;;;5052289;28;20040;-73
2022/09/06 02:43:03;;;;;;;7.78;5.05;;;18.70;99.90;;;;;;5052303;28;20025;-74
2022/09/06 02:45:29;;;;;;;7.15;5.10;;;18.70;99.90;;;;;;5051742;28;20056;-74
2022/09/06 02:47:54;;;;;;;8.95;5.10;;;18.60;99.90;;;;;;5047341;28;20041;-73
2022/09/06 02:50:20;;;;;;;7.28;5.40;;;18.60;99.90;;;;;;5042776;28;20472;-74
2022/09/06 02:52:45;;;;;;;9.45;5.72;;;18.60;99.90;;;;;;5051601;28;20067;-72
2022/09/06 02:55:11;;;;;;;9.55;5.85;;;18.50;99.90;;;;;;5051821;28;20036;-74
2022/09/06 02:57:37;;;;;;;8.23;5.68;;;18.50;99.90;;;;;;5051522;28;20029;-73
2022/09/06 03:00:03;;;;;;;8.98;5.90;;;18.50;99.90;;;;;;5052046;28;20020;-73
2022/09/06 03:02:29;;;;;;;8.32;5.97;;;18.50;99.90;;;;;;5051626;28;20028;-72
2022/09/06 03:04:55;;;;;;;12.73;6.45;;;18.50;99.90;;;;;;5051547;28;20393;-73
2022/09/06 03:07:20;;;;;;;9.13;5.90;;;18.50;99.90;;;;;;5040906;28;20018;-73
2022/09/06 03:09:46;;;;;;;10.20;6.13;;;18.50;99.90;;;;;;5044297;28;20047;-74
2022/09/06 03:12:11;;;;;;;8.02;5.88;;;18.50;99.90;;;;;;5039896;28;20017;-73
2022/09/06 03:14:40;;;;;;;9.18;6.45;;;18.50;99.90;;;;;;5051354;28;20082;-73
2022/09/06 03:17:05;;;;;;;8.98;6.07;;;18.50;99.90;;;;;;5051628;28;20555;-73
2022/09/06 03:19:31;;;;;;;7.68;6.20;;;18.50;99.90;;;;;;5051339;28;20107;-74
2022/09/06 03:21:56;;;;;;;10.45;6.75;;;18.50;99.90;;;;;;5051290;28;20048;-73
2022/09/06 03:24:22;;;;;;;7.50;6.55;;;18.50;99.90;;;;;;5051192;28;20032;-73
2022/09/06 03:26:48;;;;;;;9.02;6.05;;;18.50;99.90;;;;;;5050559;28;20144;-73
2022/09/06 03:29:13;;;;;;;7.68;5.82;;;18.50;99.90;;;;;;5051132;28;20044;-74
2022/09/06 03:31:39;;;;;;;10.52;6.57;;;18.50;99.90;;;;;;5051044;28;20025;-74
2022/09/06 03:34:04;;;;;;;9.18;6.55;;;18.50;99.90;;;;;;5044296;28;20052;-73
2022/09/06 03:36:30;;;;;;;9.32;6.72;;;18.50;99.90;;;;;;5043726;28;20075;-74
2022/09/06 03:38:55;;;;;;;11.95;6.70;;;18.50;99.90;;;;;;5037097;28;20025;-73
2022/09/06 03:41:21;;;;;;;7.85;6.85;;;18.50;99.90;;;;;;5050819;28;20114;-73
2022/09/06 03:43:47;;;;;;;9.43;6.60;;;18.50;99.90;;;;;;5050642;28;20087;-74
2022/09/06 03:46:12;;;;;;;9.20;6.68;;;18.50;99.90;;;;;;5050618;28;20128;-74
2022/09/06 03:48:38;;;;;;;8.77;6.57;;;18.50;99.90;;;;;;5039975;28;20033;-73
2022/09/06 03:51:04;;;;;;;9.73;6.25;;;18.60;99.90;;;;;;5047197;28;20037;-74
2022/09/06 03:53:29;;;;;;;10.48;6.90;;;18.60;99.90;;;;;;5049209;28;20029;-73
2022/09/06 03:55:56;;;;;;;8.90;6.72;;;18.60;99.90;;;;;;5036521;28;20390;-74
2022/09/06 03:58:23;;;;;;;9.13;6.57;;;18.60;99.90;;;;;;5050768;28;20032;-73
2022/09/06 04:00:58;;;;;;;9.05;6.35;;;18.60;99.90;;;;;;5036531;28;20056;-73
2022/09/06 04:03:23;;;;;;;9.15;6.90;;;18.70;99.90;;;;;;5030977;28;20105;-74
2022/09/06 04:05:49;;;;;;;10.45;7.28;;;18.70;99.90;;;;;;5042567;28;20092;-74
2022/09/06 04:08:14;;;;;;;9.52;6.97;;;18.70;99.90;;;;;;5050456;28;20021;-73
2022/09/06 04:10:40;;;;;;;11.35;7.40;;;18.70;99.90;;;;;;5050423;28;20431;-73
2022/09/06 04:13:05;;;;;;;9.52;7.45;;;18.70;99.90;;;;;;5050271;28;20029;-73
2022/09/06 04:15:31;;;;;;;11.25;7.47;;;18.70;99.90;;;;;;5050655;28;20021;-74
2022/09/06 04:17:57;;;;;;;12.98;7.68;;;18.80;99.90;;;;;;5050381;28;20021;-74
2022/09/06 04:20:22;;;;;;;11.70;8.25;;;18.80;99.90;;;;;;5050081;28;20025;-73
2022/09/06 04:22:48;;;;;;;9.80;7.43;;;18.80;99.90;;;;;;5050218;28;20032;-74
2022/09/06 04:25:14;;;;;;;10.27;8.18;;;18.80;99.90;;;;;;5050248;28;20017;-73
2022/09/06 04:27:39;;;;;;;10.80;8.07;;;18.70;99.90;;;;;;5050114;28;20028;-73
2022/09/06 04:30:06;;;;;;;10.98;8.07;;;18.70;99.90;;;;;;5049840;28;20025;-73
2022/09/06 04:32:32;;;;;;;11.65;8.68;;;18.70;99.90;;;;;;5050197;28;20542;-73
2022/09/06 04:34:57;;;;;;;11.63;8.70;;;18.70;99.90;;;;;;5049995;28;20017;-74
2022/09/06 04:37:23;;;;;;;10.18;8.27;;;18.70;99.90;;;;;;5050160;28;20052;-73
2022/09/06 04:39:49;;;;;;;10.40;8.60;;;18.70;99.90;;;;;;5040203;28;20075;-74
2022/09/06 04:42:14;;;;;;;11.02;8.95;;;18.70;99.90;;;;;;5052496;28;20013;-73
2022/09/06 04:44:41;;;;;;;13.10;9.07;;;18.70;99.90;;;;;;5054139;28;20039;-73
2022/09/06 04:47:13;;;;;;;12.77;9.32;;;18.80;99.90;;;;;;5054222;28;20171;-74
2022/09/06 04:49:40;;;;;;;12.65;9.13;;;18.80;99.90;;;;;;5039744;28;20562;-73
2022/09/06 04:52:06;;;;;;;11.45;10.05;;;18.80;99.90;;;;;;5031196;28;20533;-74
2022/09/06 04:54:31;;;;;;;14.30;10.13;;;18.80;99.90;;;;;;5037441;28;20017;-73
2022/09/06 04:56:57;;;;;;;12.13;9.20;;;18.80;99.90;;;;;;5045446;28;20053;-74
2022/09/06 04:59:23;;;;;;;12.55;9.23;;;18.80;99.90;;;;;;5049482;28;20029;-73
2022/09/06 05:01:48;;;;;;;14.13;10.40;;;18.80;99.90;;;;;;5051881;28;20032;-73
2022/09/06 05:04:14;;;;;;;14.43;10.57;;;18.80;99.90;;;;;;5059553;28;20014;-73
2022/09/06 05:06:40;;;;;;;15.63;9.65;;;18.80;99.90;;;;;;5055310;28;20092;-73
2022/09/06 05:09:06;;;;;;;12.52;9.63;;;18.80;99.90;;;;;;5050530;28;20055;-74
2022/09/06 05:11:32;;;;;;;13.10;9.15;;;18.80;99.90;;;;;;5048244;28;20053;-73
2022/09/06 05:13:58;;;;;;;11.90;8.40;;;18.70;99.90;;;;;;5046770;28;20325;-73
2022/09/06 05:16:23;;;;;;;12.30;9.30;;;18.70;99.90;;;;;;5044489;28;20024;-73
2022/09/06 05:18:49;;;;;;;14.57;10.02;;;18.70;99.90;;;;;;5048064;28;20384;-74
2022/09/06 05:21:14;;;;;;;14.23;10.10;;;18.60;99.90;;;;;;5032246;28;20059;-74
2022/09/06 05:23:40;;;;;;;14.25;9.82;;;18.60;99.90;;;;;;5033806;28;20017;-73
2022/09/06 05:26:06;;;;;;;16.23;9.80;;;18.60;99.90;;;;;;5033444;28;20025;-74
2022/09/06 05:28:32;;;;;;;15.55;10.43;;;18.60;99.90;;;;;;5032592;28;20022;-76
2022/09/06 05:31:09;;;;;;;12.82;10.35;;;18.60;99.90;;;;;;5043625;28;20089;-77
2022/09/06 05:33:35;;;;;;;14.75;10.43;;;18.60;99.90;;;;;;5034012;28;20037;-75
2022/09/06 05:36:03;;;;;;;14.98;9.88;;;18.50;99.90;;;;;;5033648;28;20017;-75
2022/09/06 05:38:28;;;;;;;15.32;10.82;;;18.60;99.90;;;;;;5032010;28;20029;-75
2022/09/06 05:40:54;;;;;;;12.45;9.65;;;18.50;99.90;;;;;;5032053;28;20041;-75
2022/09/06 05:43:20;;;;;;;14.57;10.35;;;18.50;99.90;;;;;;5033512;28;20134;-75
2022/09/06 05:45:45;;;;;;;15.38;10.80;;;18.60;99.90;;;;;;5033207;28;20561;-75
2022/09/06 05:48:11;;;;;;;17.35;11.20;;;18.50;99.90;;;;;;5031897;28;20040;-75
2022/09/06 05:50:36;;;;;;;14.75;10.68;;;18.60;99.90;;;;;;5044244;28;20104;-75
2022/09/06 05:53:02;;;;;;;15.70;11.05;;;18.60;99.90;;;;;;5048303;28;20423;-75
2022/09/06 05:55:28;;;;;;;15.80;10.25;;;18.60;99.90;;;;;;5031706;28;20052;-76
2022/09/06 05:57:53;;;;;;;17.95;11.27;;;18.60;99.90;;;;;;5039499;28;20041;-73
2022/09/06 06:00:19;;;;;;;13.88;10.70;;;18.60;99.90;;;;;;5031478;28;20424;-74
2022/09/06 06:02:48;;;;;;;13.73;10.48;;;18.60;99.90;;;;;;5031532;28;20031;-75
2022/09/06 06:05:14;;;;;;;17.65;10.68;;;18.60;99.90;;;;;;5032084;28;20017;-74
2022/09/06 06:07:40;;;;;;;15.82;10.50;;;18.60;99.90;;;;;;5030866;28;20030;-74
2022/09/06 06:10:06;;;;;;;16.70;10.57;;;18.70;99.90;;;;;;5031585;28;20026;-74
2022/09/06 06:12:31;;;;;;;13.82;10.10;;;18.70;99.90;;;;;;5033643;28;20541;-74
2022/09/06 06:14:57;;;;;;;14.35;10.32;;;18.70;99.90;;;;;;5034400;28;20474;-74
2022/09/06 06:17:22;;;;;;;15.63;10.30;;;18.70;99.90;;;;;;5032536;28;20029;-74
2022/09/06 06:19:48;;;;;;;15.27;10.02;;;18.70;99.90;;;;;;5032110;28;20060;-74
2022/09/06 06:22:13;;;;;;;15.65;9.48;;;18.70;99.90;;;;;;5032582;28;20021;-74
2022/09/06 06:24:39;;;;;;;14.25;9.82;;;18.70;99.90;;;;;;5032894;28;20390;-73
2022/09/06 06:27:05;;;;;;;17.05;10.35;;;18.80;99.90;;;;;;5032437;28;20049;-75
2022/09/06 06:29:30;;;;;;;15.85;9.98;;;18.80;99.90;;;;;;5032250;28;20497;-74
2022/09/06 06:31:56;;;;;;;18.55;9.75;;;18.80;99.90;;;;;;5043594;28;20854;-74
2022/09/06 06:34:21;;;;;;;16.33;9.10;;;18.80;99.90;;;;;;5032406;28;20032;-75
2022/09/06 06:36:47;;;;;;;15.45;10.30;;;18.90;99.90;;;;;;5032407;28;20021;-74
2022/09/06 06:39:13;;;;;;;17.30;9.98;;;18.90;99.90;;;;;;5032415;28;20048;-75
2022/09/06 06:41:38;;;;;;;17.08;10.32;;;18.90;99.90;;;;;;5032334;28;20021;-74
2022/09/06 06:44:05;;;;;;;12.93;9.15;;;18.90;99.90;;;;;;5033274;28;20025;-73
2022/09/06 06:46:33;;;;;;;18.85;10.77;;;19.00;99.90;;;;;;5032220;28;20058;-74
2022/09/06 06:48:58;;;;;;;15.27;9.20;;;19.00;99.90;;;;;;5032070;28;20029;-73
2022/09/06 06:51:27;;;;;;;17.25;10.88;;;19.00;99.90;;;;;;5051472;28;20036;-73
2022/09/06 06:53:53;;;;;;;16.55;10.88;;;19.10;99.90;;;;;;5050216;28;20025;-74
2022/09/06 06:56:27;;;;;;;19.55;11.43;;;19.10;99.90;;;;;;5046069;28;20127;-74
2022/09/06 06:58:57;;;;;;;16.73;11.10;;;19.10;99.90;;;;;;5040670;28;20055;-74
2022/09/06 07:01:24;;;;;;;15.35;10.98;;;19.10;99.90;;;;;;5040661;28;20507;-74
2022/09/06 07:03:51;;;;;;;17.08;11.57;;;19.20;99.90;;;;;;5047907;28;20025;-73
2022/09/06 07:06:17;;;;;;;17.98;10.55;;;19.20;99.90;;;;;;5040356;28;20096;-73
2022/09/06 07:08:43;;;;;;;14.07;10.70;;;19.20;99.90;;;;;;5048254;28;20405;-73
2022/09/06 07:11:12;;;;;;;17.38;10.68;;;19.30;99.90;;;;;;5049423;28;20091;-73
2022/09/06 07:13:37;;;;;;;15.40;9.73;;;19.40;99.90;;;;;;5042429;28;20035;-73
2022/09/06 07:16:12;;;;;;;13.68;10.82;;;19.50;99.90;;;;;;5044511;28;20029;-73
2022/09/06 07:18:41;;;;;;;15.90;9.77;;;19.60;99.90;;;;;;5038854;28;20052;-72
2022/09/06 07:21:15;;;;;;;16.38;10.32;;;19.60;99.90;;;;;;5039995;28;20108;-73
2022/09/06 07:23:40;;;;;;;14.23;9.75;;;19.70;99.90;;;;;;5041902;28;20025;-73
2022/09/06 07:26:06;;;;;;;14.10;9.90;;;19.70;99.90;;;;;;5038028;28;20476;-73
2022/09/06 07:28:32;;;;;;;15.63;9.20;;;19.80;99.90;;;;;;5047444;28;20557;-74
2022/09/06 07:30:59;;;;;;;12.88;9.68;;;19.80;99.90;;;;;;5050539;28;20051;-74
2022/09/06 07:33:26;;;;;;;15.00;8.80;;;19.90;99.90;;;;;;5045253;28;20017;-73
2022/09/06 07:35:55;;;;;;;13.82;8.45;;;19.90;99.90;;;;;;5043289;28;20020;-72
2022/09/06 07:38:21;;;;;;;11.45;7.93;;;19.90;99.90;;;;;;5046884;28;20096;-71
2022/09/06 07:40:53;;;;;;;14.02;8.10;;;20.00;99.90;;;;;;5048568;28;20096;-73
2022/09/06 07:43:18;;;;;;;13.80;8.70;;;20.10;99.90;;;;;;5047660;28;20025;-73
2022/09/06 07:45:44;;;;;;;14.07;8.68;;;20.10;99.90;;;;;;5045818;28;20076;-73
2022/09/06 07:48:10;;;;;;;15.05;7.90;;;20.20;99.90;;;;;;5048910;28;20032;-73
2022/09/06 07:50:35;;;;;;;12.43;8.85;;;20.30;99.90;;;;;;5046973;28;20127;-74
2022/09/06 07:53:09;;;;;;;13.13;8.43;;;20.30;99.90;;;;;;5049391;28;20478;-74
2022/09/06 07:55:34;;;;;;;14.18;8.80;;;20.40;99.90;;;;;;5041245;28;20397;-74
2022/09/06 07:58:00;;;;;;;11.50;8.55;;;20.50;99.90;;;;;;5055735;28;20096;-73
2022/09/06 08:00:26;;;;;;;11.02;8.20;;;20.60;99.90;;;;;;5058505;28;20424;-73
2022/09/06 08:02:51;;;;;;;14.43;8.82;;;20.70;99.90;;;;;;5045633;28;20057;-73
2022/09/06 08:05:17;;;;;;;15.48;8.75;;;20.80;99.90;;;;;;5049439;28;20035;-73
2022/09/06 08:07:42;;;;;;;12.70;7.68;;;21.00;99.90;;;;;;5045900;28;20092;-73
2022/09/06 08:10:08;;;;;;;13.82;7.80;;;21.10;99.90;;;;;;5047405;28;20488;-73
2022/09/06 08:12:34;;;;;;;8.55;6.57;;;21.30;99.90;;;;;;5048751;28;20491;-74
2022/09/06 08:14:59;;;;;;;11.00;7.10;;;21.40;99.90;;;;;;5045839;28;20071;-74
2022/09/06 08:17:25;;;;;;;10.07;6.70;;;21.60;99.90;;;;;;5042550;28;20465;-73
2022/09/06 08:19:50;;;;;;;10.95;6.57;;;21.70;99.90;;;;;;5041425;28;20068;-73
2022/09/06 08:22:16;;;;;;;8.98;6.40;;;21.80;99.90;;;;;;5045724;28;20508;-74
2022/09/06 08:24:41;;;;;;;10.90;6.15;;;21.90;99.90;;;;;;5044931;28;20096;-74
2022/09/06 08:27:07;;;;;;;8.82;5.90;;;21.80;99.90;;;;;;5044450;28;20017;-73
2022/09/06 08:29:34;;;;;;;10.82;5.80;;;21.90;99.90;;;;;;5042730;28;20075;-73
2022/09/06 08:31:59;;;;;;;7.43;5.68;;;21.90;99.90;;;;;;5042141;28;20036;-74
2022/09/06 08:34:25;;;;;;;11.10;5.55;;;21.90;99.90;;;;;;5046470;28;20017;-72
2022/09/06 08:36:51;;;;;;;9.57;6.20;;;22.00;99.90;;;;;;5043766;28;20025;-72
2022/09/06 08:39:17;;;;;;;12.50;6.70;;;22.00;99.90;;;;;;5046675;28;20021;-73
2022/09/06 08:41:48;;;;;;;8.77;6.07;;;22.10;99.90;;;;;;5047581;28;20358;-73
2022/09/06 08:44:27;;;;;;;11.25;6.40;;;22.10;99.90;;;;;;5046534;28;21265;-72
2022/09/06 08:46:55;;;;;;;10.38;6.32;;;22.20;99.90;;;;;;5046780;28;20045;-74
2022/09/06 08:49:28;;;;;;;9.07;6.20;;;22.20;99.90;;;;;;5039299;28;20029;-73
2022/09/06 08:52:32;;;;;;;9.65;6.30;;;22.30;99.90;;;;;;5047016;28;20028;-74
2022/09/06 08:55:16;;;;;;;12.48;6.45;;;22.50;99.90;;;;;;5036259;28;20214;-73
2022/09/06 08:57:59;;;;;;;10.93;6.65;;;22.60;99.90;;;;;;5046474;28;20453;-74
2022/09/06 09:00:25;;;;;;;11.15;6.63;;;22.70;99.90;;;;;;5046357;28;20029;-74
2022/09/06 09:02:58;;;;;;;10.63;6.18;;;22.70;99.90;;;;;;5039567;28;20373;-75
2022/09/06 09:05:30;;;;;;;8.30;6.75;;;22.80;99.90;;;;;;5040260;28;20033;-74
2022/09/06 09:07:58;;;;;;;10.30;7.63;;;22.90;99.90;;;;;;5045598;28;20444;-73
2022/09/06 09:10:39;;;;;;;11.95;7.85;;;23.00;99.90;;;;;;5042222;28;20469;-74
2022/09/06 09:13:08;;;;;;;14.77;7.80;;;23.00;99.90;;;;;;5043588;28;20028;-74
2022/09/06 09:15:35;;;;;;;11.25;7.50;;;23.00;99.90;;;;;;5045647;28;20025;-74
2022/09/06 09:18:01;;;;;;;12.27;8.38;;;23.00;99.90;;;;;;5045584;28;20032;-73
2022/09/06 09:20:27;;;;;;;13.95;8.35;;;23.00;99.90;;;;;;5043063;28;20477;-74
2022/09/06 09:22:53;;;;;;;12.15;8.82;;;23.10;99.90;;;;;;5043500;28;20024;-74
2022/09/06 09:25:22;;;;;;;11.68;8.68;;;23.10;99.90;;;;;;5044759;28;20021;-74
2022/09/06 09:27:56;;;;;;;13.85;8.95;;;23.30;99.90;;;;;;5047266;28;20021;-74
2022/09/06 09:30:23;;;;;;;11.43;8.55;;;23.40;99.90;;;;;;5047380;28;20031;-74
2022/09/06 09:32:49;;;;;;;14.85;7.95;;;23.30;99.90;;;;;;5051662;28;20067;-73
2022/09/06 09:35:33;;;;;;;14.93;8.90;;;23.30;99.90;;;;;;5048472;28;20013;-74
2022/09/06 09:38:07;;;;;;;14.40;9.00;;;23.20;99.90;;;;;;5044275;28;20031;-74
2022/09/06 09:40:47;;;;;;;13.70;8.80;;;23.20;99.90;;;;;;5044444;28;20517;-74
2022/09/06 09:43:20;;;;;;;13.43;9.13;;;23.20;99.90;;;;;;5050427;28;20044;-74
2022/09/06 09:46:26;;;;;;;14.75;9.10;;;23.20;99.90;;;;;;5040648;28;20037;-74
2022/09/06 09:49:04;;;;;;;13.07;8.70;;;23.20;99.90;;;;;;5045792;28;20029;-74
2022/09/06 09:51:32;;;;;;;12.18;8.93;;;23.20;99.90;;;;;;5048249;28;20052;-74
2022/09/06 09:54:01;;;;;;;13.75;9.70;;;23.20;99.90;;;;;;5043510;28;20025;-74
2022/09/06 09:56:38;;;;;;;12.10;8.05;;;23.20;99.90;;;;;;5041721;28;20009;-74
2022/09/06 09:59:16;;;;;;;11.80;8.45;;;23.40;99.90;;;;;;5052106;28;20041;-74
2022/09/06 10:01:41;;;;;;;13.07;8.65;;;23.70;99.90;;;;;;5044616;28;20017;-74
2022/09/06 10:04:10;;;;;;;10.20;8.32;;;23.90;99.90;;;;;;5047337;28;20481;-75
2022/09/06 10:06:37;;;;;;;14.13;8.07;;;24.00;99.90;;;;;;5037564;28;20020;-73
2022/09/06 10:09:21;;;;;;;16.23;9.05;;;24.20;99.90;;;;;;5047861;28;20029;-74
2022/09/06 10:11:57;;;;;;;13.48;9.25;;;24.50;99.90;;;;;;5044852;28;20051;-74
2022/09/06 10:14:28;;;;;;;15.15;8.43;;;24.50;99.90;;;;;;5043631;28;20411;-74
2022/09/06 10:16:54;;;;;;;13.45;8.23;;;24.60;99.90;;;;;;5046825;28;20033;-74
2022/09/06 10:19:41;;;;;;;16.50;8.57;;;24.70;99.90;;;;;;5050420;28;20025;-74
2022/09/06 10:22:19;;;;;;;14.93;9.02;;;24.80;99.90;;;;;;5049362;28;20039;-74
2022/09/06 10:25:11;;;;;;;11.70;7.88;;;24.90;99.90;;;;;;5048782;28;20032;-74
2022/09/06 10:27:51;;;;;;;10.95;7.70;;;25.10;99.90;;;;;;5044074;28;20028;-73
2022/09/06 10:30:28;;;;;;;10.95;8.20;;;25.20;99.90;;;;;;5045281;28;20136;-74
2022/09/06 10:33:22;;;;;;;12.68;8.43;;;25.40;99.90;;;;;;5049976;28;20021;-74
2022/09/06 10:35:47;;;;;;;13.60;7.13;;;25.50;99.90;;;;;;5049245;28;20446;-74
2022/09/06 10:38:29;;;;;;;13.55;8.40;;;25.50;99.90;;;;;;5049800;28;20060;-74
2022/09/06 10:41:11;;;;;;;13.52;8.95;;;25.50;99.90;;;;;;5051524;28;20286;-74
2022/09/06 10:43:56;;;;;;;16.95;9.70;;;25.30;99.90;;;;;;5047464;28;20040;-74
2022/09/06 10:46:24;;;;;;;;;;;25.10;99.90;;;;;;5046626;28;20045;-74
2022/09/06 10:48:52;;;;;;;18.42;12.75;;;25.00;99.90;;;;;;5043020;28;19913;-74
2022/09/06 10:51:23;;;;;;;20.95;12.80;;;24.90;99.90;;;;;;5047909;28;20076;-74
2022/09/06 10:54:05;;;;;;;16.40;11.93;;;24.80;99.90;;;;;;5057714;28;20028;-74
2022/09/06 10:56:48;;;;;;;18.55;12.07;;;24.90;99.90;;;;;;5048169;28;20078;-74
2022/09/06 10:59:25;;;;;;;18.83;12.45;;;24.90;99.90;;;;;;5046409;28;20025;-74
2022/09/06 11:02:10;;;;;;;20.38;12.32;;;25.00;99.90;;;;;;5043181;28;20021;-73
2022/09/06 11:04:37;;;;;;;;;;;25.20;99.90;;;;;;5040699;28;20018;-72
2022/09/06 11:07:29;;;;;;;21.90;11.77;;;25.30;99.90;;;;;;5043947;28;20284;-72
2022/09/06 11:10:09;;;;;;;20.00;11.52;;;25.40;99.90;;;;;;5036852;28;20137;-72
2022/09/06 11:13:16;;;;;;;14.90;9.13;;;25.40;99.90;;;;;;5035827;28;20080;-72
2022/09/06 11:15:47;;;;;;;15.98;10.35;;;25.50;99.90;;;;;;5036454;28;20489;-73
2022/09/06 11:18:25;;;;;;;16.75;10.32;;;25.60;99.90;;;;;;5030635;28;20041;-72
2022/09/06 11:21:09;;;;;;;12.65;9.40;;;25.70;99.90;;;;;;5037691;28;20057;-74
2022/09/06 11:23:51;;;;;;;12.30;6.50;;;25.80;99.90;;;;;;5043897;28;20031;-74
2022/09/06 11:26:43;;;;;;;9.20;6.55;;;25.80;99.90;;;;;;5045670;28;20029;-73
2022/09/06 11:29:19;;;;;;;9.55;6.72;;;25.80;99.90;;;;;;5044655;28;20033;-73
2022/09/06 11:31:56;;;;;;;11.65;7.32;;;25.80;99.90;;;;;;5047978;28;20025;-73
2022/09/06 11:34:29;;;;;;;14.65;7.53;;;25.90;99.90;;;;;;5036755;28;20175;-72
2022/09/06 11:37:06;;;;;;;9.82;7.07;;;25.90;99.90;;;;;;5044874;28;20022;-74
2022/09/06 11:39:41;;;;;;;9.65;6.80;;;25.90;99.90;;;;;;5045237;28;20115;-74
2022/09/06 11:42:08;;;;;;;10.23;6.38;;;26.00;99.90;;;;;;5030521;28;20064;-74
2022/09/06 11:44:51;;;;;;;8.43;3.97;;;26.20;99.90;;;;;;5038957;28;20025;-76
2022/09/06 11:47:36;;;;;;;5.53;2.63;;;26.40;99.90;;;;;;5035037;28;20136;-74
2022/09/06 11:50:20;;;;;;;6.25;2.50;;;26.40;99.90;;;;;;5036488;28;20033;-74
2022/09/06 11:52:48;;;;;;;6.53;2.15;;;26.40;99.90;;;;;;5038248;28;20056;-71
2022/09/06 11:55:17;;;;;;;6.93;2.47;;;26.40;99.90;;;;;;5030930;28;20029;-71
2022/09/06 11:57:44;;;;;;;7.68;2.50;;;26.40;99.90;;;;;;5030554;28;20477;-71
2022/09/06 12:00:22;;;;;;;5.07;2.30;;;26.50;99.90;;;;;;5031508;28;20029;-71
2022/09/06 12:02:48;;;;;;;5.53;2.10;;;26.50;99.30;;;;;;5018080;28;20042;-71
2022/09/06 12:05:21;;;;;;;7.85;2.35;;;26.50;98.60;;;;;;5019956;28;20119;-71
2022/09/06 12:08:24;;;;;;;7.47;2.25;;;26.40;98.30;;;;;;5030317;28;20030;-71
2022/09/06 12:10:59;;;;;;;8.30;2.45;;;26.40;98.10;;;;;;5023897;28;20036;-70
2022/09/06 12:13:37;;;;;;;7.57;2.47;;;26.40;98.40;;;;;;5030012;28;20062;-70
2022/09/06 12:16:03;;;;;;;5.47;2.20;;;26.60;98.10;;;;;;5029906;28;20195;-72
2022/09/06 12:18:47;;;;;;;8.40;2.30;;;26.60;98.00;;;;;;5030449;28;20104;-71
2022/09/06 12:21:40;;;;;;;6.32;2.47;;;26.70;98.00;;;;;;5022602;28;20025;-71
2022/09/06 12:24:08;;;;;;;6.13;2.13;;;26.90;97.70;;;;;;5021963;28;20018;-72
2022/09/06 12:27:05;;;;;;;4.95;2.30;;;27.00;97.10;;;;;;5030699;28;20025;-71
2022/09/06 12:29:30;;;;;;;5.15;1.98;;;27.10;96.30;;;;;;5020648;28;20065;-71
2022/09/06 12:31:57;;;;;;;7.28;1.90;;;27.10;96.20;;;;;;5016253;28;20080;-71
2022/09/06 12:34:30;;;;;;;6.25;1.90;;;27.20;95.70;;;;;;5029800;28;20547;-72
2022/09/06 12:36:57;;;;;;;6.15;1.90;;;27.20;94.70;;;;;;5030376;28;20404;-71
2022/09/06 12:39:23;;;;;;;7.43;2.28;;;27.40;94.70;;;;;;5029126;28;20107;-72
2022/09/06 12:41:58;;;;;;;6.97;2.10;;;27.50;94.50;;;;;;5029644;28;20033;-71
2022/09/06 12:44:43;;;;;;;8.32;2.17;;;27.50;94.30;;;;;;5030145;28;20069;-71
2022/09/06 12:47:22;;;;;;;5.55;2.25;;;27.60;94.00;;;;;;5025574;28;20565;-71
2022/09/06 12:50:08;;;;;;;5.80;2.00;;;27.60;93.70;;;;;;5048262;28;20026;-71
2022/09/06 12:52:42;;;;;;;4.75;1.70;;;27.60;93.60;;;;;;5016801;28;20113;-71
2022/09/06 12:55:17;;;;;;;4.05;1.80;;;27.60;93.10;;;;;;5028940;28;20030;-72
2022/09/06 12:57:54;;;;;;;6.70;1.90;;;27.50;92.10;;;;;;5030003;28;20038;-71
2022/09/06 13:00:21;;;;;;;9.27;2.50;;;27.50;92.30;;;;;;5029862;28;20116;-71